Time;durP1;ratioP1;P1;durP2;ratioP2;P2;SDS_P1;SDS_P2;PMS_P1;PMS_P2;Temp;Humidity;BMP_temperature;BMP_pressure;BME280_temperature;BME280_humidity;BME280_pressure;Samples;Min_cycle;Max_cycle;Signal;HPM_P1;HPM_P2
2021/06/03 00:02:28;;;;;;;1.35;1.25;;;;;;;19.72;65.11;101236.16;1784593;80;21057;-48
2021/06/03 00:04:54;;;;;;;1.30;1.20;;;;;;;19.70;65.12;101237.20;1764243;80;21538;-48
2021/06/03 00:07:21;;;;;;;1.57;1.20;;;;;;;19.70;65.29;101233.23;1761195;81;21046;-48
2021/06/03 00:09:48;;;;;;;1.95;1.10;;;;;;;19.71;65.32;101234.47;1761691;81;21004;-49
2021/06/03 00:12:15;;;;;;;1.30;1.10;;;;;;;19.73;65.25;101230.42;1764232;81;20999;-48
2021/06/03 00:14:43;;;;;;;1.92;1.20;;;;;;;19.75;65.29;101237.80;1764474;81;21468;-47
2021/06/03 00:17:12;;;;;;;2.42;1.30;;;;;;;19.77;65.27;101241.21;1764181;81;20996;-50
2021/06/03 00:19:40;;;;;;;1.57;1.15;;;;;;;19.77;65.28;101232.83;1764278;81;21007;-48
2021/06/03 00:22:08;;;;;;;0.95;0.85;;;;;;;19.78;65.29;101237.19;1767603;81;21027;-48
2021/06/03 00:24:36;;;;;;;1.10;1.00;;;;;;;19.79;65.26;101235.38;1774609;81;21061;-47
2021/06/03 00:27:05;;;;;;;1.10;1.00;;;;;;;19.73;65.44;101240.98;1774674;81;21008;-48
2021/06/03 00:29:31;;;;;;;1.57;1.07;;;;;;;19.78;65.32;101231.05;1761687;81;21055;-47
2021/06/03 00:31:58;;;;;;;1.22;1.00;;;;;;;19.79;65.32;101230.10;1764963;81;21007;-48
2021/06/03 00:34:25;;;;;;;1.98;1.10;;;;;;;19.78;65.36;101233.23;1768938;81;21108;-48
2021/06/03 00:36:52;;;;;;;1.20;1.10;;;;;;;19.81;65.24;101230.41;1762658;81;21010;-50
2021/06/03 00:39:18;;;;;;;0.85;0.75;;;;;;;19.84;65.15;101230.73;1773199;81;20995;-48
2021/06/03 00:41:46;;;;;;;1.67;1.20;;;;;;;19.86;65.11;101228.40;1764434;81;21056;-48
2021/06/03 00:44:13;;;;;;;1.22;1.05;;;;;;;19.88;65.11;101226.99;1765163;81;21030;-48
2021/06/03 00:46:41;;;;;;;1.22;0.95;;;;;;;19.88;65.09;101229.63;1762820;81;21514;-48
2021/06/03 00:49:09;;;;;;;1.10;0.80;;;;;;;19.87;65.12;101226.13;1761152;81;21024;-47
2021/06/03 00:51:36;;;;;;;1.17;0.80;;;;;;;19.88;65.19;101226.53;1766110;81;21109;-48
2021/06/03 00:54:05;;;;;;;1.50;1.02;;;;;;;19.89;65.16;101226.04;1763572;81;21011;-48
2021/06/03 00:56:35;;;;;;;2.95;0.90;;;;;;;19.90;65.21;101225.12;1773958;81;21018;-51
2021/06/03 00:59:03;;;;;;;0.90;0.70;;;;;;;19.90;65.30;101227.77;1767798;81;21042;-48
2021/06/03 01:01:31;;;;;;;0.90;0.80;;;;;;;19.91;65.34;101221.53;1729363;82;21023;-47
2021/06/03 01:04:01;;;;;;;0.68;0.68;;;;;;;19.91;65.28;101226.81;1769239;80;21027;-47
2021/06/03 01:06:30;;;;;;;2.02;0.70;;;;;;;19.91;65.28;101228.13;1771543;81;21074;-48
2021/06/03 01:09:07;;;;;;;2.30;0.80;;;;;;;19.90;65.26;101230.41;1766431;81;20983;-50
2021/06/03 01:11:42;;;;;;;2.67;0.82;;;;;;;19.90;65.29;101230.41;1740671;82;21639;-49
2021/06/03 01:14:27;;;;;;;3.45;0.80;;;;;;;19.94;65.17;101231.48;1753141;82;21104;-48
2021/06/03 01:16:57;;;;;;;1.00;0.80;;;;;;;19.94;65.23;101231.95;1716302;83;21778;-49
2021/06/03 01:19:34;;;;;;;1.32;0.88;;;;;;;19.97;65.09;101232.63;1652468;85;21018;-49
2021/06/03 01:22:10;;;;;;;0.75;0.72;;;;;;;20.03;64.86;101236.76;1676508;85;21034;-49
2021/06/03 01:24:43;;;;;;;1.10;1.00;;;;;;;19.71;65.84;101235.79;1691490;85;20974;-49
2021/06/03 01:27:15;;;;;;;1.67;0.90;;;;;;;20.02;64.91;101235.03;1656385;85;21009;-49
2021/06/03 01:30:10;;;;;;;1.02;0.90;;;;;;;20.08;64.68;101236.03;1668529;86;21092;-49
2021/06/03 01:32:40;;;;;;;1.42;1.17;;;;;;;20.10;64.53;101243.41;1659377;86;21022;-49
2021/06/03 01:35:11;;;;;;;2.70;1.47;;;;;;;20.10;64.35;101243.41;1691639;85;21017;-49
2021/06/03 01:37:38;;;;;;;2.05;0.98;;;;;;;20.09;64.38;101236.43;1677643;85;21081;-49
2021/06/03 01:40:06;;;;;;;1.32;1.20;;;;;;;20.07;64.33;101243.59;1671133;86;20990;-50
2021/06/03 01:42:34;;;;;;;2.42;1.35;;;;;;;20.06;64.29;101247.14;1691232;85;21034;-49
2021/06/03 01:45:01;;;;;;;1.35;1.25;;;;;;;20.05;64.22;101241.49;1691528;85;21145;-49
2021/06/03 01:47:28;;;;;;;2.58;1.35;;;;;;;20.01;64.34;101241.27;1691498;85;21029;-49
2021/06/03 01:49:56;;;;;;;1.55;1.45;;;;;;;19.97;64.46;101245.84;1664686;85;21110;-49
2021/06/03 01:52:23;;;;;;;2.20;1.55;;;;;;;19.95;64.45;101246.84;1644115;86;21064;-50
2021/06/03 01:54:51;;;;;;;2.62;1.60;;;;;;;19.94;64.46;101243.37;1691647;85;21593;-49
2021/06/03 01:57:19;;;;;;;1.72;1.42;;;;;;;19.94;64.49;101247.80;1682246;85;21014;-50
2021/06/03 01:59:49;;;;;;;;;;;;;;;19.92;64.43;101252.30;1673317;86;21045;-49
2021/06/03 02:02:16;;;;;;;4.10;1.52;;;;;;;19.89;64.46;101253.77;1700652;84;20414;-49
2021/06/03 02:04:43;;;;;;;2.65;1.62;;;;;;;19.87;64.32;101255.18;1691954;84;21066;-49
2021/06/03 02:07:11;;;;;;;1.60;1.50;;;;;;;19.84;64.46;101251.86;1683550;85;21051;-49
2021/06/03 02:09:39;;;;;;;2.58;1.52;;;;;;;19.81;64.52;101256.82;1676941;85;21031;-50
2021/06/03 02:12:09;;;;;;;1.65;1.50;;;;;;;19.87;64.32;101254.31;1677941;85;21055;-48
2021/06/03 02:14:38;;;;;;;3.70;1.80;;;;;;;19.86;64.26;101255.27;1677311;85;21570;-48
2021/06/03 02:17:09;;;;;;;2.33;1.92;;;;;;;19.85;64.22;101253.55;1674294;85;21506;-49
2021/06/03 02:19:53;;;;;;;3.45;1.85;;;;;;;19.78;64.04;101260.09;1737343;81;21015;-48
2021/06/03 02:22:22;;;;;;;5.07;2.07;;;;;;;19.72;64.18;101260.42;1776292;80;21022;-49
2021/06/03 02:24:49;;;;;;;2.00;1.80;;;;;;;19.67;64.21;101276.48;1765398;81;21022;-50
2021/06/03 02:27:17;;;;;;;3.85;2.70;;;;;;;19.64;64.23;101268.70;1762459;81;21545;-48
2021/06/03 02:29:44;;;;;;;2.25;1.95;;;;;;;19.62;64.25;101272.38;1761418;81;21444;-48
2021/06/03 02:32:14;;;;;;;1.95;1.77;;;;;;;19.62;64.21;101276.34;1761465;81;21043;-49
2021/06/03 02:34:42;;;;;;;2.40;2.20;;;;;;;19.57;64.32;101279.20;1764027;81;20991;-49
2021/06/03 02:37:10;;;;;;;3.05;2.22;;;;;;;19.58;64.42;101279.58;1765741;81;20953;-49
2021/06/03 02:39:37;;;;;;;3.85;2.00;;;;;;;19.60;64.28;101284.80;1754907;81;21018;-49
2021/06/03 02:42:06;;;;;;;2.85;2.22;;;;;;;19.63;64.24;101287.27;1761057;81;20995;-49
2021/06/03 02:44:38;;;;;;;2.00;1.80;;;;;;;19.66;64.17;101294.56;1775020;81;21026;-49
2021/06/03 02:47:05;;;;;;;1.95;1.82;;;;;;;19.65;64.13;101294.65;1775641;81;21030;-49
2021/06/03 02:49:33;;;;;;;4.17;2.35;;;;;;;19.65;64.24;101301.25;1769710;81;21011;-49
2021/06/03 02:52:03;;;;;;;4.67;2.35;;;;;;;19.66;64.09;101301.16;1770038;81;21498;-49
2021/06/03 02:54:30;;;;;;;2.27;1.95;;;;;;;19.65;64.03;101298.61;1772079;81;21514;-49
2021/06/03 02:56:58;;;;;;;4.00;2.10;;;;;;;19.65;64.16;101301.25;1764407;81;20983;-49
2021/06/03 02:59:25;;;;;;;2.58;2.10;;;;;;;19.66;64.22;101302.97;1762758;81;20963;-49
2021/06/03 03:01:52;;;;;;;3.02;1.90;;;;;;;19.67;64.25;101304.20;1774826;81;20955;-49
2021/06/03 03:04:19;;;;;;;4.20;2.40;;;;;;;19.69;64.27;101308.08;1762427;80;21506;-48
2021/06/03 03:06:47;;;;;;;2.98;2.22;;;;;;;19.73;64.25;101304.35;1765273;80;21032;-49
2021/06/03 03:09:14;;;;;;;2.40;2.20;;;;;;;19.77;64.11;101311.19;1777381;81;21046;-49
2021/06/03 03:11:42;;;;;;;2.50;2.30;;;;;;;19.79;64.05;101306.68;1764191;81;21507;-49
2021/06/03 03:14:09;;;;;;;3.05;2.15;;;;;;;19.81;63.88;101307.45;1765581;81;20987;-48
2021/06/03 03:16:38;;;;;;;3.75;2.15;;;;;;;19.79;63.84;101309.32;1771567;81;20995;-49
2021/06/03 03:19:06;;;;;;;3.50;2.45;;;;;;;19.78;63.87;101314.23;1764357;81;21007;-49
2021/06/03 03:21:34;;;;;;;2.75;2.50;;;;;;;19.81;63.88;101312.28;1762315;81;21030;-50
2021/06/03 03:24:01;;;;;;;2.50;2.25;;;;;;;19.81;63.83;101316.24;1757563;81;20966;-49
2021/06/03 03:26:28;;;;;;;3.92;2.15;;;;;;;19.81;63.77;101314.06;1733486;81;21023;-49
2021/06/03 03:28:55;;;;;;;3.27;2.58;;;;;;;19.80;63.84;101317.19;1762648;81;20985;-49
2021/06/03 03:31:24;;;;;;;3.25;2.20;;;;;;;19.81;63.81;101319.34;1778686;81;21026;-49
2021/06/03 03:33:52;;;;;;;2.90;2.60;;;;;;;19.80;63.86;101320.29;1761245;81;21062;-48
2021/06/03 03:36:19;;;;;;;3.05;2.75;;;;;;;19.79;63.95;101319.89;1760939;81;21047;-49
2021/06/03 03:38:47;;;;;;;4.20;2.50;;;;;;;19.75;63.94;101323.16;1771708;81;21031;-49
2021/06/03 03:41:14;;;;;;;3.62;2.85;;;;;;;19.76;63.85;101322.70;1764567;81;21469;-49
2021/06/03 03:43:41;;;;;;;2.90;2.60;;;;;;;19.75;63.75;101324.48;1775708;81;21049;-49
2021/06/03 03:46:08;;;;;;;4.42;3.10;;;;;;;19.75;63.75;101327.58;1774654;81;21515;-49
2021/06/03 03:48:37;;;;;;;2.90;2.60;;;;;;;19.72;63.71;101331.70;1775478;81;21081;-49
2021/06/03 03:51:04;;;;;;;6.22;3.05;;;;;;;19.66;63.88;101332.84;1764109;81;21014;-49
2021/06/03 03:53:33;;;;;;;3.25;2.75;;;;;;;19.62;63.57;101343.66;1766460;80;21015;-49
2021/06/03 03:56:02;;;;;;;3.25;2.47;;;;;;;19.60;63.47;101342.89;1765878;81;20999;-49
2021/06/03 03:58:32;;;;;;;4.15;2.72;;;;;;;19.59;63.53;101346.44;1773535;80;21451;-49
2021/06/03 04:01:00;;;;;;;2.75;2.50;;;;;;;19.54;63.47;101348.47;1773165;81;21475;-48
2021/06/03 04:03:27;;;;;;;3.30;2.42;;;;;;;19.54;63.41;101347.16;1764608;80;20979;-49
2021/06/03 04:05:55;;;;;;;4.30;2.83;;;;;;;19.55;63.22;101347.52;1759591;80;21625;-49
2021/06/03 04:08:24;;;;;;;5.65;2.87;;;;;;;19.53;63.14;101341.47;1765666;80;21015;-48
2021/06/03 04:10:53;;;;;;;5.33;2.45;;;;;;;19.52;63.00;101348.52;1766772;80;21499;-48
2021/06/03 04:13:23;;;;;;;2.72;2.15;;;;;;;19.49;62.72;101353.48;1760193;81;21510;-49
2021/06/03 04:15:56;;;;;;;2.55;2.35;;;;;;;19.48;62.86;101342.55;1763661;80;21534;-48
2021/06/03 04:18:24;;;;;;;3.77;2.40;;;;;;;19.48;62.77;101349.60;1770064;80;21006;-49
2021/06/03 04:20:51;;;;;;;3.60;2.42;;;;;;;19.49;62.69;101354.80;1770225;80;21015;-49
2021/06/03 04:23:18;;;;;;;11.00;2.83;;;;;;;19.48;62.68;101367.62;1768036;80;21030;-48
2021/06/03 04:25:48;;;;;;;2.98;2.30;;;;;;;19.49;62.68;101374.59;1775772;81;21007;-49
2021/06/03 04:28:14;;;;;;;2.62;2.20;;;;;;;19.52;62.54;101380.66;1763370;81;21523;-48
2021/06/03 04:30:42;;;;;;;3.00;2.47;;;;;;;19.49;62.27;101370.64;1765443;81;21010;-48
2021/06/03 04:33:09;;;;;;;5.20;2.87;;;;;;;19.45;62.29;101375.67;1771351;80;20998;-48
2021/06/03 04:35:36;;;;;;;3.60;2.12;;;;;;;19.45;62.33;101385.41;1764772;80;21522;-48
2021/06/03 04:38:04;;;;;;;4.05;2.50;;;;;;;19.45;62.47;101384.91;1772916;81;20983;-48
2021/06/03 04:40:31;;;;;;;2.15;1.95;;;;;;;19.48;62.28;101381.28;1753147;81;21034;-48
2021/06/03 04:43:00;;;;;;;3.47;2.30;;;;;;;19.48;62.27;101386.10;1761915;81;21007;-48
2021/06/03 04:45:27;;;;;;;3.62;2.42;;;;;;;19.47;62.14;101385.69;1763755;81;21074;-48
2021/06/03 04:47:54;;;;;;;3.08;2.50;;;;;;;19.49;62.13;101386.96;1777232;81;21490;-48
2021/06/03 04:50:21;;;;;;;4.55;2.27;;;;;;;19.48;62.03;101384.78;1762669;81;20986;-48
2021/06/03 04:52:48;;;;;;;4.30;2.50;;;;;;;19.48;62.00;101389.20;1770284;81;21019;-48
2021/06/03 04:55:19;;;;;;;2.72;2.27;;;;;;;19.45;61.87;101384.91;1778623;81;21030;-48
2021/06/03 04:57:46;;;;;;;3.98;2.25;;;;;;;19.44;61.92;101392.45;1763563;81;21029;-49
2021/06/03 05:00:23;;;;;;;2.72;2.30;;;;;;;19.44;61.95;101391.14;1763297;80;20995;-49
2021/06/03 05:02:52;;;;;;;4.05;2.27;;;;;;;19.47;61.94;101404.17;1770542;81;20983;-49
2021/06/03 05:05:19;;;;;;;3.92;2.17;;;;;;;19.49;61.96;101404.95;1763246;81;21090;-49
2021/06/03 05:07:49;;;;;;;3.02;2.40;;;;;;;19.49;61.89;101399.67;1765348;80;21055;-49
2021/06/03 05:10:17;;;;;;;2.42;2.12;;;;;;;19.49;61.82;101400.99;1778527;80;20971;-48
2021/06/03 05:12:45;;;;;;;3.65;2.08;;;;;;;19.51;61.85;101407.54;1756741;81;21077;-49
2021/06/03 05:15:14;;;;;;;4.10;2.40;;;;;;;19.52;61.83;101411.88;1765376;81;21033;-48
2021/06/03 05:17:41;;;;;;;3.55;2.45;;;;;;;19.53;61.86;101407.45;1764416;81;21026;-48
2021/06/03 05:20:11;;;;;;;7.53;2.15;;;;;;;19.55;61.66;101420.12;1761754;81;21523;-49
2021/06/03 05:22:38;;;;;;;2.77;1.95;;;;;;;19.55;61.62;101424.08;1761210;81;21535;-49
2021/06/03 05:25:11;;;;;;;3.55;2.15;;;;;;;19.56;61.41;101417.88;1775693;81;20991;-49
2021/06/03 05:27:39;;;;;;;3.80;2.08;;;;;;;19.56;61.21;101427.95;1764407;81;21526;-48
2021/06/03 05:30:08;;;;;;;3.10;2.05;;;;;;;19.55;61.21;101425.39;1732937;82;21027;-49
2021/06/03 05:32:35;;;;;;;3.65;2.20;;;;;;;19.59;61.21;101436.20;1764861;80;21018;-49
2021/06/03 05:35:04;;;;;;;4.80;2.05;;;;;;;19.60;61.22;101427.37;1765567;80;21026;-49
2021/06/03 05:37:31;;;;;;;2.47;2.10;;;;;;;19.63;61.04;101432.48;1755084;81;20994;-48
2021/06/03 05:39:58;;;;;;;2.12;1.92;;;;;;;19.64;61.04;101431.56;1756521;81;21022;-49
2021/06/03 05:42:26;;;;;;;2.58;2.20;;;;;;;19.66;60.88;101427.06;1753774;81;21522;-48
2021/06/03 05:44:53;;;;;;;4.62;2.27;;;;;;;19.67;60.88;101424.80;1759621;81;20988;-49
2021/06/03 05:47:20;;;;;;;3.12;2.40;;;;;;;19.70;60.62;101433.91;1760399;81;21089;-48
2021/06/03 05:49:47;;;;;;;3.67;2.45;;;;;;;19.69;60.59;101433.05;1761165;80;21012;-48
2021/06/03 05:52:13;;;;;;;3.60;2.35;;;;;;;19.70;60.50;101437.87;1771058;80;21499;-49
2021/06/03 05:54:42;;;;;;;3.62;2.20;;;;;;;19.70;60.47;101440.02;1761633;81;21032;-48
2021/06/03 05:57:09;;;;;;;2.30;2.10;;;;;;;19.73;60.62;101441.66;1760178;81;21046;-48
2021/06/03 05:59:36;;;;;;;3.75;2.33;;;;;;;19.75;60.46;101439.80;1762561;80;21014;-49
2021/06/03 06:02:06;;;;;;;3.55;1.75;;;;;;;19.76;60.36;101434.92;1768461;81;20997;-50
2021/06/03 06:07:19;;;;;;;2.10;1.82;;;;;;;19.83;60.14;101440.28;1758837;81;21078;-48
2021/06/03 06:09:46;;;;;;;4.45;2.80;;;;;;;19.88;60.12;101448.84;1779005;81;21026;-49
2021/06/03 06:12:13;;;;;;;2.98;2.17;;;;;;;19.87;60.00;101452.41;1764834;81;21011;-49
2021/06/03 06:14:42;;;;;;;3.00;2.52;;;;;;;19.87;59.92;101452.41;1763024;81;21054;-49
2021/06/03 06:17:10;;;;;;;3.40;2.70;;;;;;;19.88;59.87;101447.53;1778338;81;21042;-49
2021/06/03 06:19:38;;;;;;;3.60;2.00;;;;;;;19.87;59.84;101444.02;1761376;81;21042;-49
2021/06/03 06:22:05;;;;;;;4.22;2.17;;;;;;;19.88;59.83;101444.89;1774616;81;21066;-49
2021/06/03 06:24:33;;;;;;;4.42;2.22;;;;;;;19.87;59.60;101441.84;1762872;81;21004;-49
2021/06/03 06:27:01;;;;;;;3.90;2.05;;;;;;;19.88;59.60;101443.56;1774163;81;21014;-49
2021/06/03 06:29:28;;;;;;;5.05;2.52;;;;;;;19.89;59.57;101442.62;1777952;81;21061;-52
2021/06/03 06:31:56;;;;;;;4.92;2.33;;;;;;;19.92;59.26;101445.12;1774522;80;21061;-51
2021/06/03 06:34:23;;;;;;;9.55;2.08;;;;;;;19.91;59.19;101446.91;1778406;81;21010;-50
2021/06/03 06:36:50;;;;;;;2.92;2.15;;;;;;;19.92;59.08;101450.41;1774338;80;21034;-49
2021/06/03 06:39:17;;;;;;;3.60;2.33;;;;;;;19.94;58.94;101448.55;1779238;81;21035;-49
2021/06/03 06:41:45;;;;;;;2.30;2.10;;;;;;;19.98;59.11;101447.46;1774837;81;21613;-52
2021/06/03 06:44:13;;;;;;;4.12;2.45;;;;;;;20.03;58.95;101456.86;1772013;81;21058;-49
2021/06/03 06:46:40;;;;;;;3.00;2.25;;;;;;;20.06;59.02;101452.76;1763920;81;21031;-48
2021/06/03 06:49:08;;;;;;;3.87;2.20;;;;;;;20.09;59.00;101447.80;1766214;81;21499;-49
2021/06/03 06:51:35;;;;;;;6.95;2.52;;;;;;;20.14;58.96;101448.40;1775580;81;21058;-48
2021/06/03 06:54:05;;;;;;;4.37;3.00;;;;;;;20.17;58.90;101450.91;1770275;80;21027;-49
2021/06/03 06:56:32;;;;;;;6.80;2.80;;;;;;;20.20;58.76;101453.41;1771580;80;21565;-50
2021/06/03 06:58:59;;;;;;;2.87;2.30;;;;;;;20.21;58.52;101452.03;1761227;81;20991;-49
2021/06/03 07:01:26;;;;;;;2.77;2.02;;;;;;;20.24;58.40;101447.03;1778140;81;20991;-50
2021/06/03 07:03:53;;;;;;;3.80;2.47;;;;;;;20.25;57.96;101450.08;1765381;81;20967;-49
2021/06/03 07:06:20;;;;;;;2.20;2.00;;;;;;;20.28;57.99;101464.45;1768470;80;21046;-50
2021/06/03 07:08:47;;;;;;;4.17;2.90;;;;;;;20.31;57.63;101461.66;1780814;80;21036;-51
2021/06/03 07:11:16;;;;;;;3.33;2.20;;;;;;;20.33;57.42;101453.19;1782875;80;21006;-53
2021/06/03 07:13:44;;;;;;;3.40;2.15;;;;;;;20.36;57.17;101454.33;1780249;80;21521;-49
2021/06/03 07:16:11;;;;;;;4.20;2.27;;;;;;;20.39;56.49;101455.97;1776494;80;21006;-49
2021/06/03 07:18:38;;;;;;;7.22;2.15;;;;;;;20.41;56.29;101462.04;1765229;80;20991;-50
2021/06/03 07:21:05;;;;;;;4.65;2.50;;;;;;;20.44;56.33;101471.15;1783146;80;21058;-50
2021/06/03 07:23:32;;;;;;;5.78;2.25;;;;;;;20.47;55.80;101467.87;1772865;80;20990;-49
2021/06/03 07:25:59;;;;;;;5.72;1.82;;;;;;;20.47;55.40;101459.94;1786319;80;21014;-50
2021/06/03 07:28:26;;;;;;;3.30;2.30;;;;;;;20.49;55.48;101464.68;1770622;80;21010;-49
2021/06/03 07:30:52;;;;;;;6.15;2.98;;;;;;;20.50;55.42;101470.38;1781487;80;21011;-50
2021/06/03 07:33:20;;;;;;;2.90;1.85;;;;;;;20.52;55.48;101463.22;1780717;80;21053;-50
2021/06/03 07:35:47;;;;;;;5.42;2.10;;;;;;;20.55;55.39;101470.11;1759750;80;21018;-50
2021/06/03 07:38:15;;;;;;;3.05;2.15;;;;;;;20.55;55.37;101472.30;1764354;80;21017;-50
2021/06/03 07:40:43;;;;;;;3.50;2.35;;;;;;;20.57;55.13;101477.03;1783704;80;21061;-50
2021/06/03 07:43:12;;;;;;;4.97;2.40;;;;;;;20.59;55.18;101475.17;1783102;80;20983;-50
2021/06/03 07:45:40;;;;;;;5.00;2.05;;;;;;;20.62;55.11;101479.45;1770871;80;21505;-50
2021/06/03 07:48:08;;;;;;;6.05;2.25;;;;;;;20.62;55.18;101485.60;1765039;80;21498;-50
2021/06/03 07:50:35;;;;;;;2.72;2.12;;;;;;;20.65;55.41;101468.73;1773008;80;21431;-49
2021/06/03 07:53:04;;;;;;;3.37;2.10;;;;;;;20.72;55.48;101472.75;1765778;80;21046;-49
2021/06/03 07:55:31;;;;;;;3.80;1.90;;;;;;;20.77;55.29;101477.34;1781745;80;21522;-50
2021/06/03 07:58:01;;;;;;;3.83;1.77;;;;;;;20.78;54.54;101485.19;1777568;80;21059;-50
2021/06/03 08:00:29;;;;;;;2.95;1.90;;;;;;;20.78;53.84;101483.86;1777366;80;21529;-49
2021/06/03 08:02:56;;;;;;;6.45;2.37;;;;;;;20.77;53.88;101480.81;1782499;80;21030;-50
2021/06/03 08:05:24;;;;;;;4.30;2.05;;;;;;;20.79;53.91;101482.08;1775387;80;20963;-50
2021/06/03 08:07:53;;;;;;;3.47;2.27;;;;;;;20.80;53.59;101491.71;1769074;80;21034;-50
2021/06/03 08:10:27;;;;;;;3.52;1.98;;;;;;;20.78;53.46;101497.09;1771317;80;21034;-50
2021/06/03 08:12:55;;;;;;;2.75;2.20;;;;;;;20.77;53.16;101499.33;1670746;85;21107;-48
2021/06/03 08:15:24;;;;;;;3.58;2.27;;;;;;;20.74;52.97;101496.86;1665143;85;21015;-49
2021/06/03 08:17:52;;;;;;;3.55;1.85;;;;;;;20.75;52.88;101500.37;1668331;85;21036;-51
2021/06/03 08:20:23;;;;;;;4.75;2.22;;;;;;;20.76;52.95;101491.02;1670422;85;21032;-51
2021/06/03 08:22:50;;;;;;;2.60;2.00;;;;;;;20.77;52.60;101492.72;1672556;85;21000;-50
2021/06/03 08:25:18;;;;;;;9.33;2.90;;;;;;;20.78;52.51;101491.80;1671357;84;21058;-49
2021/06/03 08:27:45;;;;;;;4.50;2.10;;;;;;;20.80;52.54;101491.25;1671583;85;21063;-49
2021/06/03 08:30:14;;;;;;;5.05;2.12;;;;;;;20.82;52.36;101490.70;1671262;84;21473;-49
2021/06/03 08:32:46;;;;;;;5.12;2.00;;;;;;;20.87;52.35;101493.98;1679866;84;20986;-48
2021/06/03 08:35:15;;;;;;;2.98;2.10;;;;;;;20.91;52.45;101503.45;1680347;84;21572;-52
2021/06/03 08:37:44;;;;;;;4.22;1.85;;;;;;;20.94;52.49;101503.28;1685872;84;21530;-50
2021/06/03 08:40:13;;;;;;;3.30;1.90;;;;;;;20.98;52.87;101499.53;1603760;88;21098;-50
2021/06/03 08:42:42;;;;;;;5.85;2.10;;;;;;;21.02;52.66;101498.47;1602586;88;21557;-49
2021/06/03 08:45:12;;;;;;;3.42;2.20;;;;;;;21.06;52.17;101497.86;1602985;88;21045;-50
2021/06/03 08:47:39;;;;;;;3.90;1.95;;;;;;;21.06;52.16;101498.69;1611853;88;21122;-49
2021/06/03 08:50:07;;;;;;;2.40;1.77;;;;;;;21.10;52.36;101490.60;1617661;88;21541;-49
2021/06/03 08:52:36;;;;;;;3.20;1.90;;;;;;;21.16;52.17;101490.27;1588238;89;21033;-49
2021/06/03 08:55:08;;;;;;;5.58;2.10;;;;;;;21.22;52.14;101488.61;1616617;88;21560;-49
2021/06/03 08:57:34;;;;;;;6.05;2.02;;;;;;;21.29;52.38;101487.36;1604789;88;21032;-49
2021/06/03 09:00:02;;;;;;;3.45;2.17;;;;;;;21.36;52.40;101483.42;1609591;88;21118;-50
2021/06/03 09:02:30;;;;;;;6.08;2.30;;;;;;;21.44;52.26;101483.84;1603620;88;21559;-49
2021/06/03 09:04:57;;;;;;;3.72;2.15;;;;;;;21.54;51.65;101487.70;1603183;89;21537;-50
2021/06/03 09:07:38;;;;;;;2.27;1.77;;;;;;;21.65;51.73;101490.61;1605655;88;21180;-49
2021/06/03 09:10:33;;;;;;;5.30;2.20;;;;;;;21.77;51.88;101488.13;1620832;87;21589;-50
2021/06/03 09:13:08;;;;;;;2.58;1.87;;;;;;;21.88;51.61;101488.89;1623240;88;21061;-49
2021/06/03 09:15:40;;;;;;;4.28;1.77;;;;;;;21.99;51.43;101482.48;1553080;91;21550;-49
2021/06/03 09:18:09;;;;;;;;;;;;;;;22.09;51.28;101483.66;1534074;92;21151;-49
2021/06/03 09:20:39;;;;;;;2.70;2.20;;;;;;;22.17;50.76;101484.09;1527963;93;20133;-50
2021/06/03 09:23:07;;;;;;;5.37;2.50;;;;;;;22.24;50.61;101484.10;1524934;93;21173;-50
2021/06/03 09:25:39;;;;;;;5.10;2.77;;;;;;;22.32;50.66;101481.85;1530340;92;21601;-49
2021/06/03 09:28:29;;;;;;;4.50;2.72;;;;;;;22.36;50.89;101481.22;1526074;93;21119;-49
2021/06/03 09:31:18;;;;;;;2.70;1.80;;;;;;;22.39;50.69;101481.88;1513187;94;21086;-49
2021/06/03 09:33:56;;;;;;;2.83;2.12;;;;;;;22.39;50.12;101476.58;1512541;94;21652;-48
2021/06/03 09:36:52;;;;;;;1.85;1.55;;;;;;;22.36;50.23;101471.44;1478551;96;21542;-51
2021/06/03 09:39:38;;;;;;;6.08;2.30;;;;;;;22.34;50.50;101475.98;1526329;92;21041;-49
2021/06/03 09:42:15;;;;;;;5.05;2.00;;;;;;;22.37;51.38;101474.95;1540856;92;21595;-49
2021/06/03 09:44:52;;;;;;;4.25;2.20;;;;;;;22.39;51.26;101479.23;1541695;92;21038;-49
2021/06/03 09:47:26;;;;;;;2.77;1.85;;;;;;;22.42;51.52;101468.42;1540206;92;21123;-48
2021/06/03 09:49:57;;;;;;;4.22;2.27;;;;;;;22.45;52.08;101472.23;1520218;93;21191;-49
2021/06/03 09:52:33;;;;;;;8.33;1.95;;;;;;;22.52;52.47;101474.05;1509006;93;21156;-49
2021/06/03 09:55:10;;;;;;;1.98;1.70;;;;;;;22.56;52.43;101472.46;1484842;95;21086;-48
2021/06/03 09:57:40;;;;;;;3.02;2.00;;;;;;;22.61;52.14;101473.52;1489649;95;21148;-48
2021/06/03 10:00:16;;;;;;;3.50;2.27;;;;;;;22.67;52.11;101472.31;1490280;95;21626;-48
2021/06/03 10:02:44;;;;;;;5.85;2.02;;;;;;;22.72;52.22;101471.08;1487789;95;21165;-48
2021/06/03 10:05:16;;;;;;;4.00;1.95;;;;;;;22.79;52.40;101466.27;1490574;95;21084;-48
2021/06/03 10:07:58;;;;;;;7.60;2.20;;;;;;;22.82;51.86;101467.38;1474339;95;21193;-48
2021/06/03 10:10:28;;;;;;;5.87;1.90;;;;;;;22.88;51.51;101467.00;1467005;98;21114;-48
2021/06/03 10:12:56;;;;;;;2.75;1.87;;;;;;;22.89;51.31;101470.05;1482095;95;21104;-50
2021/06/03 10:15:29;;;;;;;6.53;2.67;;;;;;;22.88;51.07;101469.19;1493646;95;21050;-48
2021/06/03 10:18:00;;;;;;;2.00;1.80;;;;;;;22.91;51.09;101473.47;1499902;95;21103;-51
2021/06/03 10:20:44;;;;;;;4.97;1.82;;;;;;;22.95;51.12;101472.33;1498804;95;21143;-49
2021/06/03 10:23:21;;;;;;;3.77;2.10;;;;;;;22.99;50.83;101470.73;1488823;95;21073;-48
2021/06/03 10:25:53;;;;;;;1.70;1.60;;;;;;;23.00;50.34;101468.93;1537306;92;21075;-48
2021/06/03 10:28:23;;;;;;;3.17;1.80;;;;;;;23.00;50.43;101470.26;1539365;92;21009;-48
2021/06/03 10:30:53;;;;;;;2.30;1.82;;;;;;;23.03;50.46;101472.70;1543032;92;21055;-49
2021/06/03 10:33:23;;;;;;;2.98;1.77;;;;;;;23.06;50.45;101477.34;1541293;92;21070;-49
2021/06/03 10:35:56;;;;;;;5.60;1.80;;;;;;;23.11;50.29;101471.75;1545950;91;21579;-49
2021/06/03 10:38:23;;;;;;;5.12;2.10;;;;;;;23.13;50.16;101473.84;1542965;93;21047;-48
2021/06/03 10:40:57;;;;;;;3.80;2.02;;;;;;;23.12;50.40;101474.80;1546627;91;21048;-48
2021/06/03 10:43:25;;;;;;;5.15;2.17;;;;;;;23.15;50.58;101477.25;1541385;93;21149;-51
2021/06/03 10:45:51;;;;;;;5.00;1.92;;;;;;;23.16;50.50;101471.01;1542975;92;21511;-49
2021/06/03 10:48:18;;;;;;;3.87;2.30;;;;;;;23.14;50.21;101475.56;1582556;89;21012;-48
2021/06/03 10:50:50;;;;;;;5.97;1.72;;;;;;;23.11;49.96;101479.72;1602313;89;21120;-49
2021/06/03 10:53:20;;;;;;;4.72;1.80;;;;;;;23.08;47.96;101482.08;1594841;89;21581;-49
2021/06/03 10:55:50;;;;;;;7.05;1.70;;;;;;;23.02;46.50;101482.96;1605351;87;21046;-49
2021/06/03 10:58:18;;;;;;;1.92;1.37;;;;;;;22.98;45.78;101477.47;1659764;86;21521;-49
2021/06/03 11:01:05;;;;;;;2.42;1.40;;;;;;;22.98;45.40;101480.12;1656028;86;21049;-50
2021/06/03 11:04:01;;;;;;;2.77;1.70;;;;;;;23.00;45.14;101486.19;1611615;88;21016;-48
2021/06/03 11:06:30;;;;;;;5.10;1.80;;;;;;;22.99;44.97;101480.48;1610388;89;21577;-49
2021/06/03 11:09:07;;;;;;;4.55;1.72;;;;;;;22.98;45.69;101486.75;1609209;89;21073;-49
2021/06/03 11:11:44;;;;;;;4.50;1.60;;;;;;;22.94;46.18;101483.88;1609433;89;21037;-49
2021/06/03 11:14:17;;;;;;;2.25;1.62;;;;;;;22.91;46.82;101486.73;1610454;89;21100;-49
2021/06/03 11:16:54;;;;;;;2.42;2.17;;;;;;;22.90;46.83;101482.36;1608097;89;21076;-49
2021/06/03 11:19:27;;;;;;;3.42;1.75;;;;;;;22.85;45.87;101483.13;1580691;88;21634;-49
2021/06/03 11:21:57;;;;;;;2.35;1.70;;;;;;;22.82;46.18;101485.95;1617953;88;21585;-49
2021/06/03 11:24:31;;;;;;;2.10;1.60;;;;;;;22.79;45.78;101479.53;1620510;88;21030;-49
2021/06/03 11:27:08;;;;;;;3.33;1.57;;;;;;;22.80;45.68;101491.84;1620734;88;21083;-48
2021/06/03 11:29:42;;;;;;;3.98;1.90;;;;;;;22.77;45.32;101484.94;1569242;91;21137;-49
2021/06/03 11:32:17;;;;;;;6.60;1.87;;;;;;;22.78;45.40;101491.08;1550231;91;21144;-48
2021/06/03 11:34:50;;;;;;;7.03;3.55;;;;;;;22.78;44.89;101493.73;1555021;91;21082;-48
2021/06/03 11:37:30;;;;;;;3.77;1.67;;;;;;;22.79;45.39;101498.10;1559547;91;21059;-48
2021/06/03 11:40:13;;;;;;;2.55;1.82;;;;;;;22.80;45.39;101503.31;1558136;91;21162;-48
2021/06/03 11:42:48;;;;;;;2.35;1.62;;;;;;;22.80;45.34;101494.48;1546192;92;21109;-48